Time;durP1;ratioP1;P1;durP2;ratioP2;P2;SDS_P1;SDS_P2;PMS_P1;PMS_P2;Temp;Humidity;BMP_temperature;BMP_pressure;BME280_temperature;BME280_humidity;BME280_pressure;Samples;Min_cycle;Max_cycle;Signal;HPM_P1;HPM_P2
2022/04/24 00:02:24;;;;;;;3.83;3.13;;;12.80;99.90;;;;;;5051628;28;20176;-83
2022/04/24 00:04:50;;;;;;;4.20;2.87;;;12.80;99.90;;;;;;5035222;28;20196;-84
2022/04/24 00:07:16;;;;;;;4.20;3.13;;;12.80;99.90;;;;;;5051185;28;20233;-84
2022/04/24 00:09:42;;;;;;;5.73;3.40;;;12.80;99.90;;;;;;5051902;28;20414;-83
2022/04/24 00:12:09;;;;;;;3.67;2.67;;;12.70;99.90;;;;;;5053072;28;20203;-84
2022/04/24 00:14:35;;;;;;;3.80;3.10;;;12.70;99.90;;;;;;5053050;28;20517;-83
2022/04/24 00:17:01;;;;;;;5.87;3.80;;;12.70;99.90;;;;;;5052124;28;20509;-83
2022/04/24 00:19:27;;;;;;;3.87;2.70;;;12.60;99.90;;;;;;5052932;28;20684;-84
2022/04/24 00:21:53;;;;;;;4.47;3.57;;;12.60;99.90;;;;;;5052910;28;20437;-84
2022/04/24 00:24:18;;;;;;;4.40;3.23;;;12.50;99.90;;;;;;5035118;28;20188;-83
2022/04/24 00:26:44;;;;;;;4.70;3.00;;;12.50;99.90;;;;;;5050798;28;20199;-83
2022/04/24 00:29:09;;;;;;;5.13;3.73;;;12.50;99.90;;;;;;5034935;28;20635;-83
2022/04/24 00:31:35;;;;;;;4.60;3.33;;;12.40;99.90;;;;;;5050508;28;20180;-83
2022/04/24 00:34:01;;;;;;;4.20;3.33;;;12.40;99.90;;;;;;5034644;28;20200;-83
2022/04/24 00:36:26;;;;;;;4.80;3.13;;;12.30;99.90;;;;;;5034171;28;20172;-83
2022/04/24 00:38:52;;;;;;;3.80;3.20;;;12.20;99.90;;;;;;5051496;28;20210;-83
2022/04/24 00:41:17;;;;;;;3.87;3.00;;;12.20;99.90;;;;;;5034571;28;20187;-83
2022/04/24 00:43:52;;;;;;;3.83;3.10;;;12.20;99.90;;;;;;5034418;28;20261;-83
2022/04/24 00:46:48;;;;;;;5.07;3.40;;;12.10;99.90;;;;;;5052272;28;20171;-85
2022/04/24 00:49:14;;;;;;;4.57;3.10;;;12.20;99.90;;;;;;5034204;28;20462;-83
2022/04/24 00:51:42;;;;;;;4.77;4.00;;;12.20;99.90;;;;;;5052323;28;20422;-83
2022/04/24 00:54:09;;;;;;;4.37;2.63;;;12.20;99.90;;;;;;5052306;28;20686;-83
2022/04/24 00:56:40;;;;;;;4.10;3.10;;;12.30;99.90;;;;;;5033589;28;20425;-83
2022/04/24 00:59:08;;;;;;;4.43;3.13;;;12.20;99.90;;;;;;5034447;28;20431;-83
2022/04/24 01:01:34;;;;;;;4.40;3.37;;;12.20;99.90;;;;;;5051741;28;20469;-83
2022/04/24 01:04:02;;;;;;;4.93;3.47;;;12.20;99.90;;;;;;5050730;28;20531;-84
2022/04/24 01:06:31;;;;;;;4.97;3.20;;;12.20;99.90;;;;;;5051209;28;20425;-83
2022/04/24 01:09:12;;;;;;;4.73;3.33;;;12.20;99.90;;;;;;5034094;28;21008;-83
2022/04/24 01:11:38;;;;;;;3.90;3.20;;;12.10;99.90;;;;;;5052163;28;20410;-83
2022/04/24 01:14:05;;;;;;;3.90;2.90;;;12.10;99.90;;;;;;5052046;28;20433;-83
2022/04/24 01:16:30;;;;;;;3.83;3.10;;;12.10;99.90;;;;;;5051246;28;20413;-83
2022/04/24 01:18:58;;;;;;;4.83;4.07;;;12.00;99.90;;;;;;5034627;28;20414;-84
2022/04/24 01:21:23;;;;;;;4.67;3.47;;;12.00;99.90;;;;;;5034889;28;20194;-84
2022/04/24 01:23:49;;;;;;;4.80;3.50;;;12.00;99.90;;;;;;5034964;28;20402;-83
2022/04/24 01:26:14;;;;;;;5.50;3.93;;;12.00;99.90;;;;;;5052367;28;20298;-83
2022/04/24 01:28:40;;;;;;;4.17;2.97;;;12.00;99.90;;;;;;5051718;28;20226;-84
2022/04/24 01:31:06;;;;;;;4.10;3.20;;;12.00;99.90;;;;;;5034594;28;20210;-83
2022/04/24 01:33:31;;;;;;;4.93;3.67;;;12.00;99.90;;;;;;5052401;28;20188;-83
2022/04/24 01:35:57;;;;;;;6.50;3.90;;;11.90;99.90;;;;;;5034515;28;20192;-83
2022/04/24 01:38:23;;;;;;;5.60;3.50;;;11.90;99.90;;;;;;5033839;28;20192;-83
2022/04/24 01:40:48;;;;;;;4.50;3.57;;;11.80;99.90;;;;;;5034556;28;20183;-83
2022/04/24 01:43:16;;;;;;;5.30;4.00;;;11.80;99.90;;;;;;5035899;28;20175;-83
2022/04/24 01:45:42;;;;;;;5.07;3.67;;;11.70;99.90;;;;;;5038423;28;20199;-83
2022/04/24 01:48:08;;;;;;;4.50;3.57;;;11.70;99.90;;;;;;5054274;28;20507;-83
2022/04/24 01:50:33;;;;;;;5.30;4.10;;;11.70;99.90;;;;;;5055030;28;20422;-83
2022/04/24 01:52:59;;;;;;;3.97;3.57;;;11.60;99.90;;;;;;5038395;28;20176;-83
2022/04/24 01:55:24;;;;;;;5.57;4.13;;;11.60;99.90;;;;;;5038106;28;20191;-83
2022/04/24 01:57:50;;;;;;;5.40;4.23;;;11.60;99.90;;;;;;5054360;28;20213;-83
2022/04/24 02:00:15;;;;;;;6.53;3.70;;;11.60;99.90;;;;;;5056107;28;20270;-84
2022/04/24 02:02:41;;;;;;;6.00;4.07;;;11.60;99.90;;;;;;5055902;28;20216;-83
2022/04/24 02:05:06;;;;;;;5.83;3.43;;;11.50;99.90;;;;;;5054544;28;20200;-85
2022/04/24 02:07:32;;;;;;;3.53;3.13;;;11.50;99.90;;;;;;5055429;28;20180;-85
2022/04/24 02:09:57;;;;;;;7.50;4.37;;;11.50;99.90;;;;;;5055741;28;20211;-85
2022/04/24 02:12:23;;;;;;;8.17;3.93;;;11.50;99.90;;;;;;5038170;28;20184;-83
2022/04/24 02:14:48;;;;;;;5.47;3.90;;;11.50;99.90;;;;;;5037854;28;20202;-83
2022/04/24 02:17:14;;;;;;;5.13;4.10;;;11.40;99.90;;;;;;5053509;28;20187;-83
2022/04/24 02:19:39;;;;;;;5.67;3.83;;;11.30;99.90;;;;;;5055887;28;20175;-83
2022/04/24 02:22:05;;;;;;;5.13;4.10;;;11.30;99.90;;;;;;5037722;28;20211;-83
2022/04/24 02:24:31;;;;;;;4.93;3.40;;;11.30;99.90;;;;;;5037835;28;20560;-83
2022/04/24 02:26:57;;;;;;;5.80;3.90;;;11.30;99.90;;;;;;5054830;28;20592;-83
2022/04/24 02:29:22;;;;;;;5.00;3.70;;;11.30;99.90;;;;;;5037786;28;20250;-83
2022/04/24 02:31:48;;;;;;;6.63;4.00;;;11.20;99.90;;;;;;5055446;28;20581;-83
2022/04/24 02:34:13;;;;;;;7.00;4.10;;;11.20;99.90;;;;;;5037308;28;20695;-83
2022/04/24 02:36:39;;;;;;;4.90;3.97;;;11.20;99.90;;;;;;5053400;28;20225;-83
2022/04/24 02:39:04;;;;;;;4.93;3.50;;;11.10;99.90;;;;;;5055391;28;20175;-85
2022/04/24 02:41:30;;;;;;;5.13;4.07;;;11.10;99.90;;;;;;5053973;28;20180;-85
2022/04/24 02:43:55;;;;;;;4.50;3.80;;;11.10;99.90;;;;;;5037161;28;20604;-83
2022/04/24 02:46:21;;;;;;;4.73;3.23;;;11.00;99.90;;;;;;5053654;28;20541;-83
2022/04/24 02:48:47;;;;;;;6.03;4.23;;;11.00;99.90;;;;;;5036833;28;20218;-83
2022/04/24 02:51:12;;;;;;;4.67;3.57;;;10.90;99.90;;;;;;5055038;28;20183;-83
2022/04/24 02:53:38;;;;;;;4.30;3.37;;;10.90;99.90;;;;;;5055061;28;20172;-83
2022/04/24 02:56:03;;;;;;;5.00;3.60;;;10.80;99.90;;;;;;5030669;28;20180;-83
2022/04/24 02:58:29;;;;;;;5.50;4.80;;;10.80;99.90;;;;;;5036185;28;20186;-83
2022/04/24 03:00:56;;;;;;;5.53;4.20;;;10.70;99.90;;;;;;5055098;28;20675;-83
2022/04/24 03:03:22;;;;;;;5.43;4.30;;;10.70;99.90;;;;;;5052545;28;20261;-85
2022/04/24 03:05:49;;;;;;;7.00;4.20;;;10.70;99.90;;;;;;5036638;28;20572;-85
2022/04/24 03:08:18;;;;;;;5.77;4.00;;;10.70;99.90;;;;;;5054167;28;20195;-84
2022/04/24 03:10:44;;;;;;;5.20;3.83;;;10.70;99.90;;;;;;5053473;28;20788;-82
2022/04/24 03:13:10;;;;;;;5.20;3.70;;;10.70;99.90;;;;;;5054870;28;20414;-83
2022/04/24 03:15:37;;;;;;;5.33;4.73;;;10.60;99.90;;;;;;5054401;28;20191;-85
2022/04/24 03:18:04;;;;;;;5.03;3.97;;;10.60;99.90;;;;;;5053919;28;20440;-85
2022/04/24 03:20:30;;;;;;;5.50;4.00;;;10.60;99.90;;;;;;5036333;28;20936;-85
2022/04/24 03:22:56;;;;;;;5.80;4.20;;;10.50;99.90;;;;;;5054263;28;20416;-85
2022/04/24 03:25:22;;;;;;;6.27;5.20;;;10.40;99.90;;;;;;5036048;28;20961;-85
2022/04/24 03:27:47;;;;;;;5.90;4.10;;;10.40;99.90;;;;;;5053549;28;20545;-85
2022/04/24 03:30:13;;;;;;;5.13;4.37;;;10.40;99.90;;;;;;5036282;28;20570;-86
2022/04/24 03:32:39;;;;;;;5.70;4.10;;;10.30;99.90;;;;;;5054161;28;20181;-85
2022/04/24 03:35:08;;;;;;;6.43;4.50;;;10.30;99.90;;;;;;5035563;28;20215;-85
2022/04/24 03:37:34;;;;;;;6.83;4.90;;;10.20;99.90;;;;;;5053058;28;20418;-85
2022/04/24 03:40:00;;;;;;;6.30;4.50;;;10.10;99.90;;;;;;5035875;28;20429;-85
2022/04/24 03:42:26;;;;;;;7.13;4.50;;;10.10;99.90;;;;;;5035541;28;20804;-85
2022/04/24 03:44:56;;;;;;;8.20;5.03;;;10.20;99.90;;;;;;5035526;28;20434;-85
2022/04/24 03:47:22;;;;;;;6.50;4.40;;;10.20;99.90;;;;;;5052611;28;20210;-84
2022/04/24 03:49:48;;;;;;;5.83;4.20;;;10.20;99.90;;;;;;5035525;28;21038;-84
2022/04/24 03:52:13;;;;;;;8.67;5.10;;;10.20;99.90;;;;;;5052055;28;20419;-85
2022/04/24 03:54:40;;;;;;;5.70;4.50;;;10.30;99.90;;;;;;5035408;28;20563;-85
2022/04/24 03:57:06;;;;;;;5.33;4.67;;;10.10;99.90;;;;;;5034508;28;20176;-84
2022/04/24 03:59:31;;;;;;;5.97;4.70;;;10.00;99.90;;;;;;5035334;28;20428;-84
2022/04/24 04:01:57;;;;;;;5.43;4.40;;;10.00;99.90;;;;;;5035363;28;20476;-85
2022/04/24 04:04:23;;;;;;;5.40;4.63;;;10.00;99.90;;;;;;5035242;28;20276;-84
2022/04/24 04:06:48;;;;;;;6.50;4.83;;;10.00;99.90;;;;;;5052171;28;20187;-84
2022/04/24 04:09:15;;;;;;;7.17;4.90;;;10.00;99.90;;;;;;5018777;28;20227;-84
2022/04/24 04:11:40;;;;;;;5.83;4.67;;;10.00;99.90;;;;;;5035078;28;20188;-84
2022/04/24 04:14:06;;;;;;;6.00;4.53;;;9.90;99.90;;;;;;5052974;28;20438;-84
2022/04/24 04:16:32;;;;;;;5.93;4.50;;;9.90;99.90;;;;;;5050920;28;20176;-84
2022/04/24 04:18:57;;;;;;;6.33;4.97;;;9.90;99.90;;;;;;5034966;28;20435;-85
2022/04/24 04:21:23;;;;;;;6.30;5.13;;;10.00;99.90;;;;;;5051589;28;20183;-84
2022/04/24 04:23:49;;;;;;;6.30;4.47;;;9.90;99.90;;;;;;5051434;28;20239;-84
2022/04/24 04:26:17;;;;;;;8.63;4.90;;;10.00;99.90;;;;;;5051447;28;20187;-85
2022/04/24 04:28:44;;;;;;;7.40;5.40;;;10.00;99.90;;;;;;5051852;28;20226;-84
2022/04/24 04:31:10;;;;;;;5.97;5.00;;;9.90;99.90;;;;;;5034814;28;20433;-85
2022/04/24 04:33:36;;;;;;;5.83;4.60;;;9.90;99.90;;;;;;5034671;28;20430;-84
2022/04/24 04:36:02;;;;;;;5.20;4.67;;;10.00;99.90;;;;;;5074891;22;20493;-78
2022/04/24 04:38:27;;;;;;;7.07;5.30;;;10.00;99.90;;;;;;5038382;28;20266;-78
2022/04/24 04:40:53;;;;;;;6.17;4.70;;;10.00;99.90;;;;;;5038949;28;20187;-79
2022/04/24 04:43:19;;;;;;;6.63;5.13;;;10.00;99.90;;;;;;5039411;28;20610;-78
2022/04/24 04:45:47;;;;;;;6.17;5.03;;;10.00;99.90;;;;;;5038894;28;20597;-78
2022/04/24 04:48:13;;;;;;;6.50;5.37;;;10.00;99.90;;;;;;5038357;28;21124;-79
2022/04/24 04:50:39;;;;;;;5.70;4.60;;;9.90;99.90;;;;;;5038865;28;20781;-79
2022/04/24 04:53:05;;;;;;;8.00;6.67;;;9.90;99.90;;;;;;5038880;28;20427;-79
2022/04/24 04:55:31;;;;;;;8.87;5.50;;;10.00;99.90;;;;;;5038130;28;20506;-79
2022/04/24 04:57:58;;;;;;;6.77;4.90;;;10.00;99.90;;;;;;5038156;28;20643;-79
2022/04/24 05:00:24;;;;;;;6.10;5.47;;;10.00;99.90;;;;;;5038230;28;20422;-78
2022/04/24 05:02:50;;;;;;;8.17;6.07;;;10.00;99.90;;;;;;5039095;28;20430;-79
2022/04/24 05:05:16;;;;;;;8.30;5.87;;;10.10;99.90;;;;;;5039407;28;20442;-78
2022/04/24 05:07:42;;;;;;;6.30;5.27;;;10.20;99.90;;;;;;5038549;28;20448;-79
2022/04/24 05:10:09;;;;;;;5.57;4.67;;;10.20;99.90;;;;;;5038346;28;20466;-79
2022/04/24 05:12:35;;;;;;;6.63;5.07;;;10.30;99.90;;;;;;5038545;28;20207;-79
2022/04/24 05:15:05;;;;;;;6.90;5.10;;;10.40;99.90;;;;;;5038352;28;20414;-79
2022/04/24 05:17:33;;;;;;;5.83;4.93;;;10.50;99.90;;;;;;5037694;28;20495;-78
2022/04/24 05:19:58;;;;;;;6.87;5.17;;;10.60;99.90;;;;;;5038765;28;20496;-78
2022/04/24 05:22:24;;;;;;;6.30;4.90;;;10.60;99.90;;;;;;5037955;28;20461;-78
2022/04/24 05:24:50;;;;;;;6.03;4.60;;;10.70;99.90;;;;;;5038311;28;20187;-78
2022/04/24 05:27:16;;;;;;;7.20;4.97;;;10.80;99.90;;;;;;5038117;28;20294;-78
2022/04/24 05:29:42;;;;;;;7.43;6.10;;;11.00;99.90;;;;;;5037622;28;20488;-78
2022/04/24 05:32:10;;;;;;;6.47;5.50;;;11.10;99.90;;;;;;5038081;28;20446;-78
2022/04/24 05:34:36;;;;;;;9.73;6.17;;;11.20;99.90;;;;;;5038166;28;20179;-78
2022/04/24 05:37:03;;;;;;;8.20;6.07;;;11.30;99.90;;;;;;5037749;28;20442;-78
2022/04/24 05:39:29;;;;;;;9.83;6.60;;;11.50;99.90;;;;;;5038801;28;20789;-79
2022/04/24 05:41:58;;;;;;;7.83;6.13;;;11.60;99.90;;;;;;5038017;28;20418;-78
2022/04/24 05:44:24;;;;;;;8.97;6.23;;;11.80;99.90;;;;;;5037626;28;20526;-79
2022/04/24 05:46:50;;;;;;;8.37;5.80;;;11.90;99.90;;;;;;5038330;28;20458;-78
2022/04/24 05:49:16;;;;;;;6.83;5.40;;;12.00;99.90;;;;;;5037289;28;20237;-79
2022/04/24 05:51:42;;;;;;;8.53;6.83;;;12.10;99.90;;;;;;5037687;28;20410;-78
2022/04/24 05:54:12;;;;;;;8.40;6.03;;;12.20;99.90;;;;;;5038217;28;20422;-78
2022/04/24 05:56:41;;;;;;;6.73;5.90;;;12.40;99.90;;;;;;5037773;28;20449;-78
2022/04/24 05:59:10;;;;;;;6.23;5.27;;;12.50;99.90;;;;;;5038413;28;20744;-78
2022/04/24 06:01:36;;;;;;;10.53;5.97;;;12.70;99.90;;;;;;5037697;28;20410;-79
2022/04/24 06:04:02;;;;;;;8.93;6.23;;;12.80;99.90;;;;;;5038098;28;20968;-79
2022/04/24 06:06:30;;;;;;;6.77;6.07;;;12.90;99.90;;;;;;5037295;28;20203;-79
2022/04/24 06:08:57;;;;;;;9.20;6.73;;;13.00;99.90;;;;;;5038679;28;20458;-78
2022/04/24 06:11:22;;;;;;;6.67;5.60;;;13.00;99.90;;;;;;5036314;28;20407;-78
2022/04/24 06:13:48;;;;;;;6.57;5.03;;;13.00;99.90;;;;;;5036795;28;20526;-77
2022/04/24 06:16:14;;;;;;;7.53;6.10;;;13.10;99.90;;;;;;5038376;28;20203;-79
2022/04/24 06:18:40;;;;;;;15.10;6.20;;;13.10;99.90;;;;;;5039103;28;20180;-78
2022/04/24 06:21:06;;;;;;;6.50;5.80;;;13.20;99.90;;;;;;5043830;28;20202;-80
2022/04/24 06:23:32;;;;;;;6.60;5.80;;;13.20;99.90;;;;;;5043568;28;20262;-79
2022/04/24 06:25:58;;;;;;;7.40;6.60;;;13.30;99.90;;;;;;5043729;28;20466;-79
2022/04/24 06:28:25;;;;;;;6.53;5.20;;;13.50;99.90;;;;;;5042505;28;20489;-79
2022/04/24 06:30:50;;;;;;;7.07;6.00;;;13.70;99.90;;;;;;5047092;28;20513;-79
2022/04/24 06:33:17;;;;;;;6.00;5.40;;;14.00;99.90;;;;;;5045039;28;20955;-78
2022/04/24 06:35:45;;;;;;;6.83;5.97;;;14.30;99.90;;;;;;5042661;28;20219;-79
2022/04/24 06:38:11;;;;;;;9.37;5.60;;;14.60;99.90;;;;;;5042611;28;20430;-78
2022/04/24 06:40:38;;;;;;;7.70;5.87;;;14.70;99.90;;;;;;5040653;28;20418;-79
2022/04/24 06:43:07;;;;;;;5.97;5.37;;;14.60;99.90;;;;;;5040945;28;20482;-78
2022/04/24 06:45:38;;;;;;;9.50;6.23;;;14.50;99.90;;;;;;5040171;28;20409;-78
2022/04/24 06:48:12;;;;;;;7.20;6.00;;;14.70;99.90;;;;;;5039592;28;20467;-78
2022/04/24 06:50:40;;;;;;;7.03;6.33;;;14.80;99.90;;;;;;5040446;28;20437;-78
2022/04/24 06:53:09;;;;;;;7.33;5.33;;;14.90;99.90;;;;;;5039614;28;20406;-78
2022/04/24 06:55:40;;;;;;;8.30;6.60;;;15.00;99.90;;;;;;5040270;28;20414;-78
2022/04/24 06:58:08;;;;;;;7.20;5.97;;;15.00;99.90;;;;;;5040276;28;20406;-78
2022/04/24 07:00:36;;;;;;;7.00;5.67;;;15.20;99.90;;;;;;5039721;28;20422;-78
2022/04/24 07:03:24;;;;;;;7.03;5.70;;;15.10;99.90;;;;;;5039635;28;20921;-78
2022/04/24 07:05:53;;;;;;;7.00;5.70;;;15.10;99.90;;;;;;5056111;28;20937;-78
2022/04/24 07:08:21;;;;;;;8.00;6.17;;;15.10;99.90;;;;;;5038634;28;20465;-78
2022/04/24 07:10:47;;;;;;;6.43;5.10;;;15.00;99.90;;;;;;5039816;28;20444;-78
2022/04/24 07:13:13;;;;;;;7.37;6.50;;;15.00;99.90;;;;;;5039167;28;20422;-78
2022/04/24 07:15:39;;;;;;;6.93;5.93;;;15.10;99.90;;;;;;5039225;28;20875;-78
2022/04/24 07:18:06;;;;;;;7.70;6.43;;;15.30;99.90;;;;;;5039660;28;20421;-79
2022/04/24 07:20:32;;;;;;;7.37;5.80;;;15.50;99.90;;;;;;5039260;28;20825;-78
2022/04/24 07:23:02;;;;;;;7.80;6.20;;;15.60;99.90;;;;;;5038679;28;20418;-78
2022/04/24 07:25:37;;;;;;;6.87;6.13;;;15.70;99.90;;;;;;5038937;28;20266;-80
2022/04/24 07:28:03;;;;;;;6.50;5.77;;;16.00;99.90;;;;;;5038599;28;20432;-79
2022/04/24 07:30:29;;;;;;;7.40;5.90;;;16.10;99.90;;;;;;5038045;28;20422;-79
2022/04/24 07:32:57;;;;;;;8.17;5.77;;;16.30;99.90;;;;;;5038015;28;20764;-79
2022/04/24 07:35:28;;;;;;;6.87;5.40;;;16.40;99.90;;;;;;5038254;28;20434;-79
2022/04/24 07:37:54;;;;;;;6.50;5.60;;;16.50;99.90;;;;;;5037835;28;20454;-78
2022/04/24 07:40:22;;;;;;;8.20;6.27;;;16.50;99.90;;;;;;5037406;28;20422;-77
2022/04/24 07:42:50;;;;;;;6.17;5.57;;;16.50;99.90;;;;;;5037446;28;20430;-79
2022/04/24 07:45:22;;;;;;;7.43;6.00;;;16.70;99.90;;;;;;5037549;28;20454;-78
2022/04/24 07:47:49;;;;;;;6.97;5.73;;;16.70;99.90;;;;;;5037655;28;20426;-80
2022/04/24 07:50:16;;;;;;;6.77;5.90;;;16.90;99.90;;;;;;5037520;28;20474;-79
2022/04/24 07:52:43;;;;;;;6.07;5.23;;;16.90;99.90;;;;;;5037644;28;20422;-79
2022/04/24 07:55:11;;;;;;;8.50;6.00;;;16.90;99.90;;;;;;5041076;28;20500;-79
2022/04/24 07:57:38;;;;;;;7.07;5.57;;;17.00;99.90;;;;;;5039669;28;20446;-79
2022/04/24 08:00:06;;;;;;;7.50;6.10;;;17.10;99.90;;;;;;5042543;28;20434;-78
2022/04/24 08:02:32;;;;;;;7.87;6.17;;;17.20;99.90;;;;;;5037812;28;20513;-78
2022/04/24 08:04:57;;;;;;;7.63;5.53;;;17.10;99.90;;;;;;5036921;28;20943;-77
2022/04/24 08:07:23;;;;;;;7.10;5.87;;;17.20;99.90;;;;;;5036098;28;20578;-78
2022/04/24 08:09:49;;;;;;;7.30;6.00;;;17.20;99.90;;;;;;5035932;28;20207;-76
2022/04/24 08:12:16;;;;;;;7.20;5.70;;;17.20;99.90;;;;;;5036004;28;20184;-78
2022/04/24 08:14:42;;;;;;;6.57;5.70;;;17.10;99.90;;;;;;5036078;28;20443;-78
2022/04/24 08:17:08;;;;;;;10.00;6.40;;;17.10;99.90;;;;;;5036021;28;20565;-78
2022/04/24 08:19:34;;;;;;;8.20;5.67;;;17.10;99.90;;;;;;5039770;28;20449;-78
2022/04/24 08:21:59;;;;;;;7.50;5.73;;;17.30;99.90;;;;;;5038034;28;20536;-78
2022/04/24 08:24:25;;;;;;;6.40;5.70;;;18.00;99.90;;;;;;5037574;28;20286;-78
2022/04/24 08:26:51;;;;;;;6.73;5.60;;;19.30;99.90;;;;;;5038424;28;20210;-77
2022/04/24 08:29:17;;;;;;;7.43;6.47;;;21.00;99.90;;;;;;5037999;28;20217;-77
2022/04/24 08:31:42;;;;;;;6.40;5.80;;;21.70;99.90;;;;;;5038702;28;20191;-77
2022/04/24 08:34:08;;;;;;;7.17;5.90;;;22.80;97.60;;;;;;5040301;28;20180;-78
2022/04/24 08:36:34;;;;;;;7.47;5.83;;;23.80;90.80;;;;;;5040426;28;20701;-78
2022/04/24 08:39:00;;;;;;;7.30;5.93;;;25.50;81.00;;;;;;5042021;28;20235;-78
2022/04/24 08:41:29;;;;;;;7.40;5.67;;;26.80;73.00;;;;;;5041583;28;20484;-78
2022/04/24 08:43:56;;;;;;;6.50;5.80;;;26.70;73.40;;;;;;5041841;28;20601;-78
2022/04/24 08:46:23;;;;;;;6.80;6.10;;;26.40;65.20;;;;;;5042160;28;20940;-78
2022/04/24 08:48:50;;;;;;;6.23;5.60;;;25.80;63.70;;;;;;5041114;28;20545;-78
2022/04/24 08:51:18;;;;;;;6.53;5.80;;;25.40;63.00;;;;;;5040420;28;20418;-78
2022/04/24 08:53:45;;;;;;;6.33;5.70;;;24.10;62.90;;;;;;5039282;28;20525;-78
2022/04/24 08:56:10;;;;;;;6.10;5.27;;;24.00;64.90;;;;;;5040039;28;20445;-78
2022/04/24 08:58:36;;;;;;;6.50;5.83;;;23.80;66.90;;;;;;5039670;28;20422;-78
2022/04/24 09:01:02;;;;;;;6.90;6.30;;;23.60;67.70;;;;;;5040309;28;20270;-78
2022/04/24 09:03:28;;;;;;;7.13;6.40;;;23.50;66.10;;;;;;5039954;28;20191;-78
2022/04/24 09:05:53;;;;;;;6.50;5.73;;;23.50;68.90;;;;;;5039724;28;20209;-78
2022/04/24 09:08:24;;;;;;;7.20;6.47;;;24.50;71.10;;;;;;5039414;28;20214;-78
2022/04/24 09:10:52;;;;;;;8.07;6.53;;;25.20;64.60;;;;;;5040587;28;20266;-78
2022/04/24 09:16:18;;;;;;;7.87;6.23;;;26.00;61.30;;;;;;5060714;28;20487;-78
2022/04/24 09:18:46;;;;;;;7.37;6.27;;;26.90;59.10;;;;;;5043097;28;20430;-78
2022/04/24 09:21:13;;;;;;;6.67;5.70;;;27.90;58.20;;;;;;5043910;28;20191;-78
2022/04/24 09:23:42;;;;;;;5.90;5.23;;;29.10;57.00;;;;;;5043139;28;20438;-78
2022/04/24 09:26:14;;;;;;;6.00;5.17;;;29.10;54.50;;;;;;5043396;28;20488;-78
2022/04/24 09:28:41;;;;;;;7.33;5.77;;;29.10;52.60;;;;;;5041977;28;20490;-78
2022/04/24 09:31:07;;;;;;;6.47;5.77;;;29.70;51.90;;;;;;5043339;28;20853;-78
2022/04/24 09:33:41;;;;;;;6.53;5.93;;;30.60;49.90;;;;;;5041323;28;20426;-78
2022/04/24 09:36:08;;;;;;;5.90;5.30;;;;;;;;;;5042990;28;20462;-78
2022/04/24 09:38:41;;;;;;;6.80;5.50;;;;;;;;;;5042194;28;20872;-78
2022/04/24 09:41:15;;;;;;;5.90;5.20;;;;;;;;;;5042359;28;20430;-78
2022/04/24 09:43:42;;;;;;;6.57;5.67;;;34.30;41.00;;;;;;5041978;28;20922;-79
2022/04/24 09:46:08;;;;;;;5.90;5.07;;;35.30;40.80;;;;;;5042400;28;20445;-79
2022/04/24 09:48:33;;;;;;;5.97;5.30;;;35.90;38.50;;;;;;5040845;28;20425;-78
2022/04/24 09:50:59;;;;;;;6.00;5.47;;;36.20;36.40;;;;;;5040913;28;20426;-78
2022/04/24 09:53:27;;;;;;;5.80;5.20;;;35.60;34.90;;;;;;5040943;28;20265;-79
2022/04/24 09:55:54;;;;;;;6.63;5.90;;;34.40;34.90;;;;;;5040890;28;20211;-79
2022/04/24 09:58:21;;;;;;;5.73;5.23;;;33.50;36.10;;;;;;5039816;28;20925;-78
2022/04/24 10:00:47;;;;;;;5.97;5.37;;;33.60;35.30;;;;;;5040060;28;20422;-79
2022/04/24 10:03:19;;;;;;;5.47;4.97;;;34.20;34.60;;;;;;5040428;28;20463;-78
2022/04/24 10:05:47;;;;;;;5.60;4.97;;;34.50;35.20;;;;;;5044301;28;20442;-79
2022/04/24 10:08:17;;;;;;;6.40;5.80;;;34.80;34.80;;;;;;5043764;28;20425;-79
2022/04/24 10:10:43;;;;;;;6.30;5.50;;;35.20;33.90;;;;;;5044067;28;20418;-79
2022/04/24 10:13:14;;;;;;;6.87;4.77;;;36.00;33.60;;;;;;5044285;28;20790;-78
2022/04/24 10:15:48;;;;;;;6.13;5.40;;;36.30;33.00;;;;;;5044397;28;20496;-79
2022/04/24 10:18:16;;;;;;;6.00;5.43;;;36.70;30.90;;;;;;5043282;28;20413;-79
2022/04/24 10:21:05;;;;;;;5.47;4.97;;;37.00;31.40;;;;;;5042371;28;20421;-79
2022/04/24 10:23:36;;;;;;;6.30;5.30;;;37.20;32.10;;;;;;5043432;28;20418;-79
2022/04/24 10:26:03;;;;;;;6.50;5.27;;;37.80;30.00;;;;;;5041504;28;20541;-78
2022/04/24 10:28:40;;;;;;;7.50;6.80;;;37.80;30.10;;;;;;5042050;28;20758;-78
2022/04/24 10:31:09;;;;;;;5.27;4.47;;;37.50;30.00;;;;;;5042055;28;20425;-78
2022/04/24 10:33:36;;;;;;;5.80;5.23;;;37.70;29.70;;;;;;5042009;28;20508;-78
2022/04/24 10:36:15;;;;;;;5.83;5.23;;;37.60;29.20;;;;;;5057240;22;20469;31
2022/04/24 10:38:48;;;;;;;7.13;5.63;;;36.90;30.20;;;;;;4995237;28;20487;-77
2022/04/24 10:41:20;;;;;;;6.20;5.10;;;36.80;29.70;;;;;;4997485;28;20420;-77
2022/04/24 10:43:51;;;;;;;5.83;5.23;;;35.10;29.70;;;;;;5013552;28;20922;-77
2022/04/24 10:46:28;;;;;;;6.13;5.10;;;33.60;30.90;;;;;;5010136;28;20449;-77
2022/04/24 10:49:05;;;;;;;6.20;5.60;;;33.60;32.00;;;;;;4994059;28;20432;-77
2022/04/24 10:51:32;;;;;;;7.10;6.13;;;33.80;32.70;;;;;;4993958;28;20428;-76
2022/04/24 10:54:11;;;;;;;6.23;5.47;;;33.10;32.80;;;;;;4993764;28;20552;-77
2022/04/24 10:56:38;;;;;;;6.57;5.53;;;32.40;31.70;;;;;;4993509;28;20452;-76
2022/04/24 10:59:12;;;;;;;6.10;5.17;;;33.20;33.70;;;;;;4993505;28;20615;-77
2022/04/24 11:01:44;;;;;;;6.30;5.70;;;33.40;33.40;;;;;;4993574;28;20424;-76
2022/04/24 11:04:14;;;;;;;6.90;6.20;;;33.30;33.20;;;;;;4993542;28;20425;-77
2022/04/24 11:06:52;;;;;;;6.30;5.47;;;33.90;33.10;;;;;;4993190;28;20956;-76
2022/04/24 11:09:18;;;;;;;6.63;5.83;;;34.20;32.50;;;;;;4993477;28;20429;-76
2022/04/24 11:11:49;;;;;;;6.60;5.87;;;34.70;32.00;;;;;;4993533;28;20439;-77
2022/04/24 11:14:25;;;;;;;6.47;5.73;;;33.80;31.20;;;;;;4993636;28;20427;-77
2022/04/24 11:17:02;;;;;;;6.03;5.10;;;33.70;31.20;;;;;;4992472;28;21038;-77
2022/04/24 11:19:29;;;;;;;5.27;4.77;;;34.70;31.80;;;;;;4993198;28;20468;-77
2022/04/24 11:22:12;;;;;;;5.30;4.80;;;33.90;31.50;;;;;;4993279;28;20515;-77
2022/04/24 11:24:40;;;;;;;5.47;4.93;;;34.70;31.70;;;;;;4993311;28;20424;-77
2022/04/24 11:27:11;;;;;;;5.83;5.30;;;34.60;32.10;;;;;;4992934;28;20866;-77
2022/04/24 11:29:37;;;;;;;6.30;5.33;;;34.70;31.90;;;;;;4993246;28;20421;-77
2022/04/24 11:32:08;;;;;;;5.73;5.13;;;35.20;31.20;;;;;;4992999;28;20461;-77
2022/04/24 11:34:34;;;;;;;7.17;6.07;;;34.90;30.80;;;;;;4993086;28;20429;-77
2022/04/24 11:37:01;;;;;;;8.43;6.10;;;33.80;30.10;;;;;;4992472;28;20556;-77
2022/04/24 11:39:27;;;;;;;6.20;5.60;;;34.60;31.70;;;;;;4992953;28;20864;-77
2022/04/24 11:41:55;;;;;;;5.30;4.80;;;35.30;30.50;;;;;;4992968;28;20417;-76
2022/04/24 11:52:39;;;;;;;7.43;6.37;;;33.20;30.00;;;;;;4994294;28;20891;-77
2022/04/24 11:55:09;;;;;;;6.47;5.80;;;30.50;31.60;;;;;;4992517;28;20487;-78
2022/04/24 11:57:35;;;;;;;6.80;5.73;;;29.60;33.60;;;;;;4992779;28;20445;-77
2022/04/24 12:00:03;;;;;;;6.80;6.10;;;29.90;35.40;;;;;;4993232;28;20491;-78
2022/04/24 12:02:29;;;;;;;5.43;4.80;;;30.40;34.60;;;;;;4993158;28;20516;-77
2022/04/24 12:04:56;;;;;;;5.70;5.10;;;30.80;34.30;;;;;;4992584;28;20416;-77
2022/04/24 12:07:32;;;;;;;5.47;4.90;;;30.20;34.10;;;;;;4992100;28;20484;-77
2022/04/24 12:10:03;;;;;;;6.10;5.50;;;31.60;34.90;;;;;;4993097;28;20440;-77
2022/04/24 12:12:29;;;;;;;5.37;4.70;;;31.10;33.70;;;;;;4992494;28;20432;-77
2022/04/24 12:14:55;;;;;;;6.10;5.20;;;30.90;33.80;;;;;;4992034;28;20793;-76
2022/04/24 12:17:23;;;;;;;5.40;4.90;;;30.10;33.50;;;;;;4972916;28;20519;-77
2022/04/24 12:19:54;;;;;;;5.40;4.90;;;30.90;33.90;;;;;;4989740;28;20210;-78
2022/04/24 12:22:31;;;;;;;7.17;5.90;;;32.90;33.50;;;;;;4957210;28;20430;-76
2022/04/24 12:25:09;;;;;;;6.07;5.30;;;35.20;31.40;;;;;;4956575;28;20433;-77
2022/04/24 12:27:36;;;;;;;6.13;4.63;;;34.60;31.00;;;;;;4956482;28;20568;-77
2022/04/24 12:30:06;;;;;;;5.70;5.03;;;34.70;31.80;;;;;;4960205;28;20433;-77
2022/04/24 12:32:34;;;;;;;6.20;5.60;;;33.40;30.10;;;;;;4991928;28;20421;-77
2022/04/24 12:35:00;;;;;;;5.90;5.30;;;31.10;30.60;;;;;;4991649;28;20498;-77
2022/04/24 12:37:31;;;;;;;5.93;5.33;;;29.40;33.00;;;;;;4991526;28;20464;-76
2022/04/24 12:39:58;;;;;;;6.17;5.57;;;29.70;33.70;;;;;;4991267;28;20559;-76
2022/04/24 12:42:25;;;;;;;6.87;5.70;;;31.60;33.40;;;;;;4991804;28;20795;-78
2022/04/24 12:44:51;;;;;;;7.60;5.10;;;33.10;32.20;;;;;;4992245;28;20416;-77
2022/04/24 12:47:19;;;;;;;6.27;5.47;;;32.80;31.00;;;;;;4991680;28;20437;-77
2022/04/24 12:49:45;;;;;;;6.07;4.87;;;33.40;31.80;;;;;;4975225;28;20433;-77
2022/04/24 12:52:11;;;;;;;7.13;5.23;;;33.60;31.60;;;;;;4991384;28;20525;-74
2022/04/24 12:54:37;;;;;;;6.27;5.60;;;33.20;30.00;;;;;;4991153;28;20193;-74
2022/04/24 12:57:08;;;;;;;7.37;5.73;;;33.00;31.60;;;;;;4991051;28;20444;-74
2022/04/24 12:59:35;;;;;;;4.73;4.30;;;31.90;31.80;;;;;;4991069;28;20304;-74
2022/04/24 13:02:05;;;;;;;5.20;4.70;;;31.40;31.80;;;;;;4991044;28;20445;-74